sensor_id;sensor_type;location;lat;lon;timestamp;pressure;altitude;pressure_sealevel;temperature;humidity
20860;BME280;10590;48.154;11.514;2022-07-05T00:03:06;95961.75;;;17.02;100.00
20860;BME280;10590;48.154;11.514;2022-07-05T00:08:09;95959.09;;;17.06;100.00
20860;BME280;10590;48.154;11.514;2022-07-05T00:13:11;95963.91;;;17.12;100.00
20860;BME280;10590;48.154;11.514;2022-07-05T00:18:13;95976.47;;;17.01;100.00
20860;BME280;10590;48.154;11.514;2022-07-05T00:23:16;95968.09;;;16.90;100.00
20860;BME280;10590;48.154;11.514;2022-07-05T00:28:18;95952.31;;;16.80;100.00
20860;BME280;10590;48.154;11.514;2022-07-05T00:33:19;95952.59;;;16.75;100.00
20860;BME280;10590;48.154;11.514;2022-07-05T00:38:22;95950.13;;;16.86;100.00
20860;BME280;10590;48.154;11.514;2022-07-05T00:43:24;95931.97;;;16.74;100.00
20860;BME280;10590;48.154;11.514;2022-07-05T00:48:26;95937.56;;;16.81;100.00
20860;BME280;10590;48.154;11.514;2022-07-05T00:53:29;95929.16;;;16.71;100.00
20860;BME280;10590;48.154;11.514;2022-07-05T00:58:32;95921.88;;;16.75;100.00
20860;BME280;10590;48.154;11.514;2022-07-05T01:03:34;95916.56;;;16.82;100.00
20860;BME280;10590;48.154;11.514;2022-07-05T01:08:39;95930.13;;;16.98;100.00
20860;BME280;10590;48.154;11.514;2022-07-05T01:13:41;95943.59;;;16.90;100.00
20860;BME280;10590;48.154;11.514;2022-07-05T01:18:43;95951.69;;;16.87;100.00
20860;BME280;10590;48.154;11.514;2022-07-05T01:23:47;95938.00;;;16.83;100.00
20860;BME280;10590;48.154;11.514;2022-07-05T01:28:49;95934.84;;;16.65;100.00
20860;BME280;10590;48.154;11.514;2022-07-05T01:33:51;95926.34;;;16.67;100.00
20860;BME280;10590;48.154;11.514;2022-07-05T01:38:54;95921.69;;;16.67;100.00
20860;BME280;10590;48.154;11.514;2022-07-05T01:43:55;95922.31;;;16.61;100.00
20860;BME280;10590;48.154;11.514;2022-07-05T01:48:58;95925.38;;;16.59;100.00
20860;BME280;10590;48.154;11.514;2022-07-05T01:54:03;95918.91;;;16.48;100.00
20860;BME280;10590;48.154;11.514;2022-07-05T01:59:06;95926.69;;;16.50;100.00
20860;BME280;10590;48.154;11.514;2022-07-05T02:04:09;95927.25;;;16.39;100.00
20860;BME280;10590;48.154;11.514;2022-07-05T02:09:13;95931.53;;;16.40;100.00
20860;BME280;10590;48.154;11.514;2022-07-05T02:14:14;95928.38;;;16.38;100.00
20860;BME280;10590;48.154;11.514;2022-07-05T02:19:16;95931.97;;;16.42;100.00
20860;BME280;10590;48.154;11.514;2022-07-05T02:24:19;95931.03;;;16.51;100.00
20860;BME280;10590;48.154;11.514;2022-07-05T02:29:21;95931.91;;;16.55;100.00
20860;BME280;10590;48.154;11.514;2022-07-05T02:34:23;95931.72;;;16.48;100.00
20860;BME280;10590;48.154;11.514;2022-07-05T02:39:26;95938.03;;;16.52;100.00
20860;BME280;10590;48.154;11.514;2022-07-05T02:44:27;95941.09;;;16.34;100.00
20860;BME280;10590;48.154;11.514;2022-07-05T02:49:29;95942.63;;;16.32;100.00
20860;BME280;10590;48.154;11.514;2022-07-05T02:54:32;95942.16;;;16.30;100.00
20860;BME280;10590;48.154;11.514;2022-07-05T02:59:34;95953.47;;;16.48;100.00
20860;BME280;10590;48.154;11.514;2022-07-05T03:04:35;95942.84;;;16.42;100.00
20860;BME280;10590;48.154;11.514;2022-07-05T03:09:39;95953.38;;;16.60;100.00
20860;BME280;10590;48.154;11.514;2022-07-05T03:14:40;95950.31;;;16.45;100.00
20860;BME280;10590;48.154;11.514;2022-07-05T03:19:42;95952.94;;;16.58;100.00
20860;BME280;10590;48.154;11.514;2022-07-05T03:24:45;95963.09;;;16.61;100.00
20860;BME280;10590;48.154;11.514;2022-07-05T03:29:46;95962.22;;;16.57;100.00
20860;BME280;10590;48.154;11.514;2022-07-05T03:34:48;95957.06;;;16.52;100.00
20860;BME280;10590;48.154;11.514;2022-07-05T03:39:51;95958.03;;;16.43;100.00
20860;BME280;10590;48.154;11.514;2022-07-05T03:44:53;95962.75;;;16.31;100.00
20860;BME280;10590;48.154;11.514;2022-07-05T03:49:54;95960.31;;;16.26;100.00
20860;BME280;10590;48.154;11.514;2022-07-05T03:54:57;95952.06;;;16.38;100.00
20860;BME280;10590;48.154;11.514;2022-07-05T03:59:59;95957.97;;;16.40;100.00
20860;BME280;10590;48.154;11.514;2022-07-05T04:05:01;95965.84;;;16.29;100.00
20860;BME280;10590;48.154;11.514;2022-07-05T04:10:05;95966.13;;;16.24;100.00
20860;BME280;10590;48.154;11.514;2022-07-05T04:15:08;95969.16;;;16.23;100.00
20860;BME280;10590;48.154;11.514;2022-07-05T04:20:10;95974.47;;;16.31;100.00
20860;BME280;10590;48.154;11.514;2022-07-05T04:25:13;95972.53;;;16.32;100.00
20860;BME280;10590;48.154;11.514;2022-07-05T04:30:19;95977.59;;;16.33;100.00
20860;BME280;10590;48.154;11.514;2022-07-05T04:35:21;95978.03;;;16.51;100.00
20860;BME280;10590;48.154;11.514;2022-07-05T04:40:24;95973.22;;;16.76;100.00
20860;BME280;10590;48.154;11.514;2022-07-05T04:45:26;95978.19;;;16.90;100.00
20860;BME280;10590;48.154;11.514;2022-07-05T04:50:28;95978.59;;;17.08;100.00
20860;BME280;10590;48.154;11.514;2022-07-05T04:55:31;95983.66;;;17.09;100.00
20860;BME280;10590;48.154;11.514;2022-07-05T05:00:32;95991.47;;;17.65;100.00
20860;BME280;10590;48.154;11.514;2022-07-05T05:05:34;95981.34;;;17.66;100.00
20860;BME280;10590;48.154;11.514;2022-07-05T05:10:37;95983.69;;;17.67;100.00
20860;BME280;10590;48.154;11.514;2022-07-05T05:15:39;95982.84;;;17.63;100.00
20860;BME280;10590;48.154;11.514;2022-07-05T05:20:41;95982.75;;;17.60;100.00
20860;BME280;10590;48.154;11.514;2022-07-05T05:25:43;95975.53;;;17.67;100.00
20860;BME280;10590;48.154;11.514;2022-07-05T05:30:45;95980.44;;;17.78;100.00
20860;BME280;10590;48.154;11.514;2022-07-05T05:35:48;95986.16;;;17.92;100.00
20860;BME280;10590;48.154;11.514;2022-07-05T05:40:51;95988.59;;;17.97;100.00
20860;BME280;10590;48.154;11.514;2022-07-05T05:45:52;95980.53;;;18.27;100.00
20860;BME280;10590;48.154;11.514;2022-07-05T05:50:54;95979.63;;;18.43;100.00
20860;BME280;10590;48.154;11.514;2022-07-05T05:56:01;95992.66;;;18.53;100.00
20860;BME280;10590;48.154;11.514;2022-07-05T06:01:03;95998.72;;;18.65;100.00
20860;BME280;10590;48.154;11.514;2022-07-05T06:06:04;96003.44;;;18.92;100.00
20860;BME280;10590;48.154;11.514;2022-07-05T06:11:07;96004.06;;;18.81;100.00
20860;BME280;10590;48.154;11.514;2022-07-05T06:16:09;96004.53;;;19.13;100.00
20860;BME280;10590;48.154;11.514;2022-07-05T06:21:11;96002.03;;;19.58;100.00
20860;BME280;10590;48.154;11.514;2022-07-05T06:26:23;96018.78;;;21.13;92.70
20860;BME280;10590;48.154;11.514;2022-07-05T06:31:25;96023.56;;;20.68;94.58
20860;BME280;10590;48.154;11.514;2022-07-05T06:36:27;96031.53;;;22.37;81.94
20860;BME280;10590;48.154;11.514;2022-07-05T06:41:30;96033.91;;;22.42;80.53
20860;BME280;10590;48.154;11.514;2022-07-05T06:46:32;96033.66;;;21.70;84.92
20860;BME280;10590;48.154;11.514;2022-07-05T06:51:34;96037.53;;;21.62;85.51
20860;BME280;10590;48.154;11.514;2022-07-05T06:56:36;96042.56;;;20.98;90.83
20860;BME280;10590;48.154;11.514;2022-07-05T07:01:38;96037.28;;;21.26;91.10
20860;BME280;10590;48.154;11.514;2022-07-05T07:06:40;96047.53;;;21.33;86.45
20860;BME280;10590;48.154;11.514;2022-07-05T07:11:43;96044.03;;;21.40;85.53
20860;BME280;10590;48.154;11.514;2022-07-05T07:16:45;96059.28;;;20.86;87.72
20860;BME280;10590;48.154;11.514;2022-07-05T07:21:47;96057.25;;;20.75;88.16
20860;BME280;10590;48.154;11.514;2022-07-05T07:26:50;96053.03;;;22.13;80.30
20860;BME280;10590;48.154;11.514;2022-07-05T07:32:05;96059.00;;;21.53;81.13
20860;BME280;10590;48.154;11.514;2022-07-05T07:37:07;96064.28;;;21.90;79.34
20860;BME280;10590;48.154;11.514;2022-07-05T07:42:14;96068.75;;;22.23;79.20
20860;BME280;10590;48.154;11.514;2022-07-05T07:47:16;96067.59;;;22.39;72.94
20860;BME280;10590;48.154;11.514;2022-07-05T07:52:18;96071.66;;;23.13;69.61
20860;BME280;10590;48.154;11.514;2022-07-05T07:57:28;96070.44;;;22.89;74.37
20860;BME280;10590;48.154;11.514;2022-07-05T08:02:29;96072.44;;;23.24;64.63
20860;BME280;10590;48.154;11.514;2022-07-05T08:07:31;96072.53;;;26.20;53.35
20860;BME280;10590;48.154;11.514;2022-07-05T08:12:34;96070.09;;;24.49;58.00
20860;BME280;10590;48.154;11.514;2022-07-05T08:17:36;96070.44;;;25.97;49.67
20860;BME280;10590;48.154;11.514;2022-07-05T08:22:57;96078.81;;;25.00;49.74
20860;BME280;10590;48.154;11.514;2022-07-05T08:28:00;96073.78;;;28.14;44.49
20860;BME280;10590;48.154;11.514;2022-07-05T08:33:02;96073.16;;;27.63;40.93
20860;BME280;10590;48.154;11.514;2022-07-05T08:38:04;96078.13;;;31.08;36.31
20860;BME280;10590;48.154;11.514;2022-07-05T08:43:07;96080.28;;;30.36;35.58
20860;BME280;10590;48.154;11.514;2022-07-05T08:48:09;96080.69;;;32.32;31.88
20860;BME280;10590;48.154;11.514;2022-07-05T08:53:12;96082.00;;;30.46;34.93
20860;BME280;10590;48.154;11.514;2022-07-05T08:58:17;96082.13;;;30.68;33.53
20860;BME280;10590;48.154;11.514;2022-07-05T09:03:21;96079.91;;;30.63;33.89
20860;BME280;10590;48.154;11.514;2022-07-05T09:08:27;96084.94;;;30.81;34.55
20860;BME280;10590;48.154;11.514;2022-07-05T09:13:35;96082.75;;;32.62;30.29
20860;BME280;10590;48.154;11.514;2022-07-05T09:18:44;96084.88;;;28.14;35.97
20860;BME280;10590;48.154;11.514;2022-07-05T09:23:53;96084.78;;;30.72;32.38
20860;BME280;10590;48.154;11.514;2022-07-05T09:28:59;96083.84;;;32.65;29.35
20860;BME280;10590;48.154;11.514;2022-07-05T09:34:04;96069.28;;;32.17;29.45
20860;BME280;10590;48.154;11.514;2022-07-05T09:39:06;96083.00;;;28.47;33.97
20860;BME280;10590;48.154;11.514;2022-07-05T09:44:09;96079.13;;;30.63;31.06
20860;BME280;10590;48.154;11.514;2022-07-05T09:49:11;96092.47;;;28.10;35.74
20860;BME280;10590;48.154;11.514;2022-07-05T09:54:13;96083.56;;;30.60;33.02
20860;BME280;10590;48.154;11.514;2022-07-05T09:59:17;96076.06;;;32.91;30.22
20860;BME280;10590;48.154;11.514;2022-07-05T10:04:20;96081.81;;;31.30;31.79
20860;BME280;10590;48.154;11.514;2022-07-05T10:09:22;96063.25;;;32.93;28.91
20860;BME280;10590;48.154;11.514;2022-07-05T10:14:25;96065.59;;;34.09;26.31
20860;BME280;10590;48.154;11.514;2022-07-05T10:19:32;96075.16;;;28.98;33.05
20860;BME280;10590;48.154;11.514;2022-07-05T10:24:37;96075.41;;;31.55;27.93
20860;BME280;10590;48.154;11.514;2022-07-05T10:29:41;96074.72;;;31.64;27.81
20860;BME280;10590;48.154;11.514;2022-07-05T10:34:43;96074.53;;;32.59;26.95
20860;BME280;10590;48.154;11.514;2022-07-05T10:39:46;96069.34;;;32.79;26.42
20860;BME280;10590;48.154;11.514;2022-07-05T10:44:49;96085.03;;;27.40;34.52
20860;BME280;10590;48.154;11.514;2022-07-05T10:50:00;96073.91;;;31.76;29.38
20860;BME280;10590;48.154;11.514;2022-07-05T10:55:19;96062.94;;;33.87;27.46
20860;BME280;10590;48.154;11.514;2022-07-05T11:00:23;96072.56;;;33.67;26.13
20860;BME280;10590;48.154;11.514;2022-07-05T11:05:25;96074.72;;;30.78;28.93
20860;BME280;10590;48.154;11.514;2022-07-05T11:10:27;96071.41;;;31.91;28.27
20860;BME280;10590;48.154;11.514;2022-07-05T11:15:33;96063.25;;;33.89;26.81
20860;BME280;10590;48.154;11.514;2022-07-05T11:20:34;96052.97;;;32.90;25.49
20860;BME280;10590;48.154;11.514;2022-07-05T11:25:39;96059.16;;;32.32;25.42
20860;BME280;10590;48.154;11.514;2022-07-05T11:30:54;96049.88;;;32.35;26.03
20860;BME280;10590;48.154;11.514;2022-07-05T11:35:56;96050.78;;;33.35;23.39
20860;BME280;10590;48.154;11.514;2022-07-05T11:41:12;96047.66;;;33.23;23.90
20860;BME280;10590;48.154;11.514;2022-07-05T11:46:18;96041.75;;;32.19;24.86
20860;BME280;10590;48.154;11.514;2022-07-05T11:51:19;96044.53;;;30.51;28.43
20860;BME280;10590;48.154;11.514;2022-07-05T11:56:21;96040.44;;;32.11;25.00
20860;BME280;10590;48.154;11.514;2022-07-05T12:01:24;96041.78;;;33.40;23.59
20860;BME280;10590;48.154;11.514;2022-07-05T12:06:26;96034.66;;;33.30;23.67
20860;BME280;10590;48.154;11.514;2022-07-05T12:11:27;96032.75;;;32.77;24.40
20860;BME280;10590;48.154;11.514;2022-07-05T12:16:48;96038.44;;;26.88;33.68
20860;BME280;10590;48.154;11.514;2022-07-05T12:21:52;96029.34;;;31.41;26.85
20860;BME280;10590;48.154;11.514;2022-07-05T12:26:54;96023.03;;;32.91;25.23
20860;BME280;10590;48.154;11.514;2022-07-05T12:32:02;96034.47;;;27.59;30.99
20860;BME280;10590;48.154;11.514;2022-07-05T12:37:04;96033.34;;;26.29;33.86
20860;BME280;10590;48.154;11.514;2022-07-05T12:42:06;96034.28;;;28.50;31.22
20860;BME280;10590;48.154;11.514;2022-07-05T12:47:09;96030.59;;;31.40;25.84
20860;BME280;10590;48.154;11.514;2022-07-05T12:52:10;96027.38;;;29.23;29.41
20860;BME280;10590;48.154;11.514;2022-07-05T12:57:14;96035.50;;;27.46;30.87
20860;BME280;10590;48.154;11.514;2022-07-05T13:02:36;96032.94;;;28.18;29.08
20860;BME280;10590;48.154;11.514;2022-07-05T13:07:41;96038.44;;;28.58;29.58
20860;BME280;10590;48.154;11.514;2022-07-05T13:12:43;96032.41;;;26.70;33.11
20860;BME280;10590;48.154;11.514;2022-07-05T13:17:47;96024.84;;;28.63;29.19
20860;BME280;10590;48.154;11.514;2022-07-05T13:22:49;96021.53;;;25.98;33.30
20860;BME280;10590;48.154;11.514;2022-07-05T13:27:50;96009.44;;;31.65;24.11
20860;BME280;10590;48.154;11.514;2022-07-05T13:32:54;96005.00;;;31.89;24.24
20860;BME280;10590;48.154;11.514;2022-07-05T13:37:56;96009.19;;;31.72;24.79
20860;BME280;10590;48.154;11.514;2022-07-05T13:42:57;96000.88;;;32.25;23.09
20860;BME280;10590;48.154;11.514;2022-07-05T13:48:00;95997.41;;;33.23;22.74
20860;BME280;10590;48.154;11.514;2022-07-05T13:53:03;96003.28;;;32.36;24.16
20860;BME280;10590;48.154;11.514;2022-07-05T13:58:04;96000.81;;;33.18;24.70
20860;BME280;10590;48.154;11.514;2022-07-05T14:03:07;96011.50;;;34.39;20.98
20860;BME280;10590;48.154;11.514;2022-07-05T14:08:09;96001.03;;;32.53;22.79
20860;BME280;10590;48.154;11.514;2022-07-05T14:13:10;96000.94;;;28.86;26.92
20860;BME280;10590;48.154;11.514;2022-07-05T14:18:14;96006.19;;;27.28;28.41
20860;BME280;10590;48.154;11.514;2022-07-05T14:23:16;95994.72;;;28.09;30.18
20860;BME280;10590;48.154;11.514;2022-07-05T14:28:18;95988.59;;;27.38;31.35
20860;BME280;10590;48.154;11.514;2022-07-05T14:33:21;95979.69;;;30.67;25.90
20860;BME280;10590;48.154;11.514;2022-07-05T14:38:23;95977.84;;;32.34;26.03
20860;BME280;10590;48.154;11.514;2022-07-05T14:43:24;95980.63;;;27.84;29.01
20860;BME280;10590;48.154;11.514;2022-07-05T14:48:27;95982.59;;;28.03;29.71
20860;BME280;10590;48.154;11.514;2022-07-05T14:53:29;95976.19;;;27.66;29.02
20860;BME280;10590;48.154;11.514;2022-07-05T14:58:31;95966.91;;;30.56;25.48
20860;BME280;10590;48.154;11.514;2022-07-05T15:03:34;95969.34;;;30.29;27.23
20860;BME280;10590;48.154;11.514;2022-07-05T15:08:36;95961.78;;;30.68;25.50
20860;BME280;10590;48.154;11.514;2022-07-05T15:13:38;95959.06;;;28.80;28.46
20860;BME280;10590;48.154;11.514;2022-07-05T15:18:41;95959.75;;;27.99;29.84
20860;BME280;10590;48.154;11.514;2022-07-05T15:23:42;95965.19;;;26.53;32.37
20860;BME280;10590;48.154;11.514;2022-07-05T15:28:44;95958.25;;;25.83;34.81
20860;BME280;10590;48.154;11.514;2022-07-05T15:33:47;95969.66;;;25.82;33.13
20860;BME280;10590;48.154;11.514;2022-07-05T15:38:48;95962.53;;;26.42;35.21
20860;BME280;10590;48.154;11.514;2022-07-05T15:43:50;95956.28;;;26.38;35.28
20860;BME280;10590;48.154;11.514;2022-07-05T15:48:53;95952.88;;;27.87;30.74
20860;BME280;10590;48.154;11.514;2022-07-05T15:53:55;95957.19;;;27.49;35.00
20860;BME280;10590;48.154;11.514;2022-07-05T15:58:57;95954.31;;;26.89;32.96
20860;BME280;10590;48.154;11.514;2022-07-05T16:04:00;95955.69;;;25.96;32.63
20860;BME280;10590;48.154;11.514;2022-07-05T16:09:02;95949.50;;;25.88;32.21
20860;BME280;10590;48.154;11.514;2022-07-05T16:14:03;95947.66;;;25.78;33.16
20860;BME280;10590;48.154;11.514;2022-07-05T16:19:06;95934.03;;;25.94;33.25
20860;BME280;10590;48.154;11.514;2022-07-05T16:24:08;95930.44;;;25.67;36.08
20860;BME280;10590;48.154;11.514;2022-07-05T16:29:10;95933.59;;;25.65;35.17
20860;BME280;10590;48.154;11.514;2022-07-05T16:34:13;95937.31;;;25.52;34.89
20860;BME280;10590;48.154;11.514;2022-07-05T16:39:15;95939.13;;;24.90;35.92
20860;BME280;10590;48.154;11.514;2022-07-05T16:44:16;95941.81;;;24.52;36.91
20860;BME280;10590;48.154;11.514;2022-07-05T16:49:19;95944.25;;;24.43;37.86
20860;BME280;10590;48.154;11.514;2022-07-05T16:54:21;95942.75;;;24.80;38.79
20860;BME280;10590;48.154;11.514;2022-07-05T16:59:23;95939.94;;;24.87;37.68
20860;BME280;10590;48.154;11.514;2022-07-05T17:04:26;95939.31;;;25.13;39.86
20860;BME280;10590;48.154;11.514;2022-07-05T17:09:27;95943.44;;;25.32;38.82
20860;BME280;10590;48.154;11.514;2022-07-05T17:14:29;95935.00;;;25.12;37.95
20860;BME280;10590;48.154;11.514;2022-07-05T17:19:32;95938.00;;;25.25;36.40
20860;BME280;10590;48.154;11.514;2022-07-05T17:24:34;95940.63;;;25.39;36.41
20860;BME280;10590;48.154;11.514;2022-07-05T17:29:35;95942.06;;;25.13;36.77
20860;BME280;10590;48.154;11.514;2022-07-05T17:34:38;95944.47;;;25.11;37.08
20860;BME280;10590;48.154;11.514;2022-07-05T17:39:40;95939.13;;;24.90;37.60
20860;BME280;10590;48.154;11.514;2022-07-05T17:44:42;95958.81;;;24.92;37.32
20860;BME280;10590;48.154;11.514;2022-07-05T17:49:45;95958.06;;;24.88;36.70
20860;BME280;10590;48.154;11.514;2022-07-05T17:54:46;95954.97;;;24.79;37.26
20860;BME280;10590;48.154;11.514;2022-07-05T17:59:48;95960.97;;;24.66;37.48
20860;BME280;10590;48.154;11.514;2022-07-05T18:04:51;95961.53;;;24.47;39.29
20860;BME280;10590;48.154;11.514;2022-07-05T18:09:53;95966.81;;;24.16;39.88
20860;BME280;10590;48.154;11.514;2022-07-05T18:14:55;95961.47;;;23.88;40.62
20860;BME280;10590;48.154;11.514;2022-07-05T18:19:58;95963.03;;;23.85;40.80
20860;BME280;10590;48.154;11.514;2022-07-05T18:25:00;95965.75;;;23.96;42.21
20860;BME280;10590;48.154;11.514;2022-07-05T18:30:02;95964.63;;;23.90;42.12
20860;BME280;10590;48.154;11.514;2022-07-05T18:35:06;95975.69;;;23.65;42.75
20860;BME280;10590;48.154;11.514;2022-07-05T18:40:08;95969.06;;;23.51;43.16
20860;BME280;10590;48.154;11.514;2022-07-05T18:45:10;95975.44;;;23.23;44.01
20860;BME280;10590;48.154;11.514;2022-07-05T18:50:13;95978.63;;;23.04;43.94
20860;BME280;10590;48.154;11.514;2022-07-05T18:55:15;95976.66;;;22.79;44.20
20860;BME280;10590;48.154;11.514;2022-07-05T19:00:17;95986.06;;;22.68;45.74
20860;BME280;10590;48.154;11.514;2022-07-05T19:05:20;95986.84;;;22.61;45.61
20860;BME280;10590;48.154;11.514;2022-07-05T19:10:22;96001.75;;;22.57;45.35
20860;BME280;10590;48.154;11.514;2022-07-05T19:15:49;95995.50;;;22.56;45.49
20860;BME280;10590;48.154;11.514;2022-07-05T19:20:52;96000.16;;;22.41;45.71
20860;BME280;10590;48.154;11.514;2022-07-05T19:25:54;96005.25;;;22.32;46.06
20860;BME280;10590;48.154;11.514;2022-07-05T19:30:55;96008.38;;;22.30;45.82
20860;BME280;10590;48.154;11.514;2022-07-05T19:35:58;96017.00;;;22.25;47.15
20860;BME280;10590;48.154;11.514;2022-07-05T19:41:02;96014.25;;;22.18;47.13
20860;BME280;10590;48.154;11.514;2022-07-05T19:46:05;96018.50;;;22.12;47.82
20860;BME280;10590;48.154;11.514;2022-07-05T19:51:08;96022.78;;;21.99;48.29
20860;BME280;10590;48.154;11.514;2022-07-05T19:56:10;96019.16;;;21.73;49.21
20860;BME280;10590;48.154;11.514;2022-07-05T20:01:12;96024.13;;;21.53;48.74
20860;BME280;10590;48.154;11.514;2022-07-05T20:06:15;96023.63;;;21.33;49.52
20860;BME280;10590;48.154;11.514;2022-07-05T20:11:17;96033.31;;;21.20;50.09
20860;BME280;10590;48.154;11.514;2022-07-05T20:16:19;96034.06;;;21.14;48.89
20860;BME280;10590;48.154;11.514;2022-07-05T20:21:21;96039.84;;;21.01;50.12
20860;BME280;10590;48.154;11.514;2022-07-05T20:26:23;96039.31;;;20.85;50.11
20860;BME280;10590;48.154;11.514;2022-07-05T20:31:25;96043.50;;;20.68;50.67
20860;BME280;10590;48.154;11.514;2022-07-05T20:36:28;96055.75;;;20.44;51.47
20860;BME280;10590;48.154;11.514;2022-07-05T20:41:30;96057.16;;;20.31;51.83
20860;BME280;10590;48.154;11.514;2022-07-05T20:46:32;96052.31;;;20.14;52.34
20860;BME280;10590;48.154;11.514;2022-07-05T20:51:35;96053.75;;;20.04;53.08
20860;BME280;10590;48.154;11.514;2022-07-05T20:56:36;96062.91;;;19.85;52.73
20860;BME280;10590;48.154;11.514;2022-07-05T21:01:38;96063.13;;;19.69;53.22
20860;BME280;10590;48.154;11.514;2022-07-05T21:06:41;96071.47;;;19.57;52.85
20860;BME280;10590;48.154;11.514;2022-07-05T21:11:43;96069.50;;;19.54;53.53
20860;BME280;10590;48.154;11.514;2022-07-05T21:16:45;96069.25;;;19.36;54.20
20860;BME280;10590;48.154;11.514;2022-07-05T21:21:48;96069.53;;;19.27;53.94
20860;BME280;10590;48.154;11.514;2022-07-05T21:26:59;96083.06;;;19.20;54.23
20860;BME280;10590;48.154;11.514;2022-07-05T21:32:01;96080.47;;;19.04;55.55
20860;BME280;10590;48.154;11.514;2022-07-05T21:37:04;96083.16;;;18.78;56.62
20860;BME280;10590;48.154;11.514;2022-07-05T21:42:06;96085.03;;;18.74;58.28
20860;BME280;10590;48.154;11.514;2022-07-05T21:47:08;96082.56;;;18.46;58.08
20860;BME280;10590;48.154;11.514;2022-07-05T21:52:11;96081.66;;;18.38;60.05
20860;BME280;10590;48.154;11.514;2022-07-05T21:57:13;96081.53;;;18.31;58.88
20860;BME280;10590;48.154;11.514;2022-07-05T22:02:14;96083.63;;;18.18;59.37
20860;BME280;10590;48.154;11.514;2022-07-05T22:07:34;96085.34;;;17.87;61.80
20860;BME280;10590;48.154;11.514;2022-07-05T22:12:36;96079.19;;;17.90;64.40
20860;BME280;10590;48.154;11.514;2022-07-05T22:17:38;96084.56;;;17.87;63.65
20860;BME280;10590;48.154;11.514;2022-07-05T22:22:41;96082.66;;;17.72;64.35
20860;BME280;10590;48.154;11.514;2022-07-05T22:27:42;96080.66;;;17.69;63.77
20860;BME280;10590;48.154;11.514;2022-07-05T22:32:44;96081.38;;;17.65;64.25
20860;BME280;10590;48.154;11.514;2022-07-05T22:37:48;96086.13;;;17.69;61.54
20860;BME280;10590;48.154;11.514;2022-07-05T22:42:49;96089.34;;;17.74;60.61
20860;BME280;10590;48.154;11.514;2022-07-05T22:47:51;96097.00;;;17.84;59.59
20860;BME280;10590;48.154;11.514;2022-07-05T22:52:54;96090.25;;;17.62;59.38
20860;BME280;10590;48.154;11.514;2022-07-05T22:57:56;96092.06;;;17.74;59.67
20860;BME280;10590;48.154;11.514;2022-07-05T23:02:57;96094.34;;;17.72;59.63
20860;BME280;10590;48.154;11.514;2022-07-05T23:08:00;96106.66;;;17.47;64.67
20860;BME280;10590;48.154;11.514;2022-07-05T23:13:02;96112.97;;;17.51;63.41
20860;BME280;10590;48.154;11.514;2022-07-05T23:18:03;96115.56;;;17.63;62.43
20860;BME280;10590;48.154;11.514;2022-07-05T23:23:06;96120.94;;;17.59;62.81
20860;BME280;10590;48.154;11.514;2022-07-05T23:28:08;96125.31;;;17.64;61.98
20860;BME280;10590;48.154;11.514;2022-07-05T23:33:09;96126.97;;;17.84;60.50
20860;BME280;10590;48.154;11.514;2022-07-05T23:38:12;96130.19;;;17.90;60.77
20860;BME280;10590;48.154;11.514;2022-07-05T23:43:14;96144.06;;;18.01;59.99
20860;BME280;10590;48.154;11.514;2022-07-05T23:48:15;96131.69;;;18.07;58.91
20860;BME280;10590;48.154;11.514;2022-07-05T23:53:18;96124.91;;;18.17;58.67
20860;BME280;10590;48.154;11.514;2022-07-05T23:58:20;96136.59;;;18.17;58.77
